Norman, Nebraska
Current Conditions -  °F | °C
As of 9:14 AM on Sunday 21 Dec 2014 (Local Time) from KHSI Reporting Station
Haze Haze  
Wind Chill: 25°   Ceiling: 400
Heat Index: 34°   Visibility: 3mi
Dew Point: 32°   Wind: 13mph
Humidity: 92%   Direction: 180°S
Pressure: 29.78"   Gusts: NA
Location:  40.48°N, 98.79°W
Report Text: KHSI 211514Z AUTO 18011KT 3SM BR BKN004 01/00 A2978 RMK AO2 T00110000
Loading
Personal Weather Stations






























Interactive Weather Map New forecast layout! Learn more

10-Day Weather Forecast

Advertisements
Track Severe Weather on mobile